createdAt,value
2019-05-13T00:01:06.823Z,7.76
2019-05-13T00:06:07.602Z,7.72
2019-05-13T00:11:10.626Z,7.75
2019-05-13T00:16:14.223Z,7.79
2019-05-13T00:21:17.323Z,7.72
2019-05-13T00:26:20.868Z,7.73
2019-05-13T00:31:24.251Z,7.77
2019-05-13T00:36:27.458Z,7.84
2019-05-13T00:41:30.431Z,7.79
2019-05-13T00:46:34.122Z,7.71
2019-05-13T00:51:37.261Z,7.69
2019-05-13T00:56:40.287Z,7.67
2019-05-13T01:01:44.042Z,7.68
2019-05-13T01:06:47.299Z,7.67
2019-05-13T01:11:50.324Z,7.61
2019-05-13T01:16:54.355Z,7.63
2019-05-13T01:21:57.531Z,7.54
2019-05-13T01:27:00.594Z,7.58
2019-05-13T01:32:04.564Z,7.62
2019-05-13T01:37:07.851Z,7.62
2019-05-13T01:42:10.839Z,7.64
2019-05-13T01:47:14.058Z,7.59
2019-05-13T01:52:17.404Z,7.59
2019-05-13T01:57:20.414Z,7.50
2019-05-13T02:02:24.275Z,7.55
2019-05-13T02:07:27.538Z,7.53
2019-05-13T02:12:30.627Z,7.58
2019-05-13T02:17:33.799Z,7.55
2019-05-13T02:22:36.872Z,7.54
2019-05-13T02:27:40.130Z,7.55
2019-05-13T02:32:43.206Z,7.48
2019-05-13T02:37:46.342Z,7.51
2019-05-13T02:42:52.311Z,7.44
2019-05-13T02:47:54.567Z,7.43
2019-05-13T02:52:57.605Z,7.42
2019-05-13T02:58:03.339Z,7.42
2019-05-13T03:03:05.412Z,7.42
2019-05-13T03:08:12.435Z,7.42
2019-05-13T03:13:13.941Z,7.40
2019-05-13T03:18:17.594Z,7.42
2019-05-13T03:23:22.745Z,7.42
2019-05-13T03:28:25.519Z,7.47
2019-05-13T03:33:28.931Z,7.43
2019-05-13T03:38:33.001Z,7.43
2019-05-13T03:43:38.786Z,7.48
2019-05-13T03:48:42.815Z,7.47
2019-05-13T03:53:46.281Z,7.46
2019-05-13T03:58:49.528Z,7.48
2019-05-13T04:03:53.010Z,7.51
2019-05-13T04:09:15.672Z,7.54
2019-05-13T04:14:03.234Z,7.57
2019-05-13T04:19:06.082Z,7.59
2019-05-13T04:24:12.215Z,7.56
2019-05-13T04:29:14.459Z,7.65
2019-05-13T04:34:18.185Z,7.62
2019-05-13T04:39:40.316Z,7.67
2019-05-13T04:44:26.802Z,7.69
2019-05-13T04:49:32.671Z,7.62
2019-05-13T04:54:34.711Z,7.62
2019-05-13T04:59:42.748Z,7.43
2019-05-13T05:04:57.500Z,7.39
2019-05-13T05:10:57.015Z,7.40
2019-05-13T05:17:05.551Z,7.31
2019-05-13T05:23:11.138Z,7.33
2019-05-13T05:29:11.396Z,7.36
2019-05-13T05:35:11.768Z,7.41
2019-05-13T05:40:28.035Z,7.32
2019-05-13T05:45:22.027Z,7.27
2019-05-13T05:50:27.878Z,7.23
2019-05-13T05:55:35.118Z,7.19
2019-05-13T06:00:41.543Z,7.32
2019-05-13T06:05:44.926Z,7.13
2019-05-13T06:10:51.297Z,7.06
2019-05-13T06:15:53.492Z,7.13
2019-05-13T06:20:56.540Z,7.10
2019-05-13T06:26:01.949Z,6.97
2019-05-13T06:31:04.526Z,7.10
2019-05-13T06:36:07.649Z,7.08
2019-05-13T06:41:14.460Z,7.16
2019-05-13T06:46:15.975Z,7.07
2019-05-13T06:51:19.050Z,7.04
2019-05-13T06:56:22.447Z,7.02
2019-05-13T07:01:25.490Z,6.98
2019-05-13T07:06:32.267Z,6.89
2019-05-13T07:11:35.255Z,6.81
2019-05-13T07:16:38.255Z,6.85
2019-05-13T07:21:41.878Z,6.83
2019-05-13T07:26:45.126Z,6.92
2019-05-13T07:31:48.191Z,6.90
2019-05-13T07:36:51.593Z,6.95
2019-05-13T07:41:54.617Z,6.95
2019-05-13T07:46:57.681Z,6.93
2019-05-13T07:52:01.830Z,6.99
2019-05-13T07:57:05.193Z,6.98
2019-05-13T08:02:08.292Z,7.03
2019-05-13T08:07:12.036Z,7.12
2019-05-13T08:12:15.499Z,7.07
2019-05-13T08:17:18.519Z,7.15
2019-05-13T08:22:22.180Z,7.22
2019-05-13T08:27:30.198Z,7.28
2019-05-13T08:32:31.460Z,7.29
2019-05-13T08:37:34.826Z,7.46
2019-05-13T08:42:37.799Z,7.49
2019-05-13T08:47:41.943Z,7.62
2019-05-13T08:52:45.281Z,7.71
2019-05-13T08:57:48.307Z,7.74
2019-05-13T09:02:52.303Z,7.88
2019-05-13T09:07:55.337Z,8.01
2019-05-13T09:12:58.315Z,8.03
2019-05-13T09:18:02.362Z,8.13
2019-05-13T09:23:06.078Z,8.16
2019-05-13T09:28:09.072Z,8.34
2019-05-13T09:33:12.165Z,8.34
2019-05-13T09:38:15.192Z,8.26
2019-05-13T09:43:18.140Z,8.44
2019-05-13T09:48:22.641Z,8.68
2019-05-13T09:53:25.958Z,8.72
2019-05-13T09:58:30.493Z,8.73
2019-05-13T10:03:33.911Z,8.80
2019-05-13T10:08:36.988Z,8.92
2019-05-13T10:13:40.224Z,9.21
2019-05-13T10:18:43.229Z,9.13
2019-05-13T10:23:46.272Z,9.14
2019-05-13T10:28:49.814Z,9.18
2019-05-13T10:33:53.043Z,9.46
2019-05-13T10:38:56.340Z,9.26
2019-05-13T10:44:02.724Z,9.43
2019-05-13T10:49:04.590Z,9.58
2019-05-13T10:54:07.582Z,9.45
2019-05-13T10:59:12.903Z,9.08
2019-05-13T11:04:15.912Z,9.15
2019-05-13T11:09:21.790Z,9.18
2019-05-13T11:14:24.192Z,9.10
2019-05-13T11:19:33.290Z,9.09
2019-05-13T11:24:32.649Z,9.17
2019-05-13T11:29:35.958Z,9.18
2019-05-13T11:34:41.987Z,9.34
2019-05-13T11:39:44.413Z,9.30
2019-05-13T11:44:47.391Z,9.49
2019-05-13T11:49:52.196Z,9.56
2019-05-13T11:54:55.870Z,9.41
2019-05-13T12:00:02.274Z,9.38
2019-05-13T12:05:04.232Z,9.38
2019-05-13T12:10:07.920Z,9.50
2019-05-13T12:15:41.945Z,9.65
2019-05-13T12:20:16.034Z,9.62
2019-05-13T12:25:22.225Z,9.67
2019-05-13T12:30:24.173Z,9.81
2019-05-13T12:35:27.301Z,9.85
2019-05-13T12:40:33.846Z,9.92
2019-05-13T12:45:35.537Z,9.85
2019-05-13T12:50:38.736Z,9.95
2019-05-13T12:55:41.719Z,9.87
2019-05-13T13:00:45.098Z,9.90
2019-05-13T13:05:48.239Z,9.75
2019-05-13T13:10:53.288Z,9.77
2019-05-13T13:15:56.167Z,9.91
2019-05-13T13:21:05.006Z,9.95
2019-05-13T13:26:04.165Z,9.85
2019-05-13T13:31:07.811Z,9.97
2019-05-13T13:41:22.308Z,9.90
2019-05-13T13:46:33.798Z,10.03
2019-05-13T13:51:26.846Z,10.19
2019-05-13T13:56:32.603Z,10.37
2019-05-13T14:01:35.108Z,10.35
2019-05-13T14:06:58.552Z,9.97
2019-05-13T14:11:43.214Z,10.57
2019-05-13T14:16:46.886Z,10.56
2019-05-13T14:21:52.516Z,10.55
2019-05-13T14:26:55.151Z,10.65
2019-05-13T14:32:01.196Z,10.60
2019-05-13T14:37:03.814Z,10.75
2019-05-13T14:42:06.894Z,10.67
2019-05-13T14:47:12.310Z,10.77
2019-05-13T14:52:14.833Z,10.73
2019-05-13T14:57:17.783Z,10.72
2019-05-13T15:02:20.811Z,10.65
2019-05-13T15:07:24.143Z,10.60
2019-05-13T15:12:27.136Z,10.64
2019-05-13T15:17:32.477Z,10.70
2019-05-13T15:22:35.060Z,10.54
2019-05-13T15:27:38.037Z,10.43
2019-05-13T15:32:42.045Z,10.35
2019-05-13T15:37:45.057Z,10.35
2019-05-13T15:42:48.139Z,10.32
2019-05-13T15:47:51.666Z,10.32
2019-05-13T15:52:54.847Z,10.24
2019-05-13T15:57:58.328Z,10.16
2019-05-13T16:03:01.721Z,9.98
2019-05-13T16:08:04.942Z,9.81
2019-05-13T16:13:11.505Z,9.61
2019-05-13T16:18:13.883Z,9.41
2019-05-13T16:23:32.583Z,9.26
2019-05-13T16:28:37.767Z,9.16
2019-05-13T16:33:42.636Z,9.01
2019-05-13T16:38:45.681Z,8.89
2019-05-13T16:43:51.064Z,8.78
2019-05-13T16:48:55.632Z,8.87
2019-05-13T16:53:58.700Z,8.70
2019-05-13T16:59:03.897Z,8.72
2019-05-13T17:04:07.099Z,8.39
2019-05-13T17:09:13.061Z,8.02
2019-05-13T17:14:16.198Z,7.59
2019-05-13T17:19:20.484Z,7.13
2019-05-13T17:24:28.066Z,6.98
2019-05-13T17:29:31.814Z,7.01
2019-05-13T17:34:45.458Z,6.71
2019-05-13T17:39:48.297Z,6.65
2019-05-13T17:44:51.701Z,6.62
2019-05-13T17:49:55.241Z,6.60
2019-05-13T17:54:58.333Z,6.63
2019-05-13T18:00:02.065Z,6.67
2019-05-13T18:05:05.889Z,6.73
2019-05-13T18:10:12.061Z,6.72
2019-05-13T18:15:15.738Z,6.76
2019-05-13T18:20:18.860Z,6.77
2019-05-13T18:25:23.246Z,6.76
2019-05-13T18:30:27.554Z,6.78
2019-05-13T18:35:31.513Z,6.93
2019-05-13T18:40:37.662Z,6.99
2019-05-13T18:45:41.923Z,7.08
2019-05-13T18:50:45.240Z,7.06
2019-05-13T18:55:52.513Z,7.11
2019-05-13T19:00:55.551Z,7.00
2019-05-13T19:06:00.977Z,6.93
2019-05-13T19:11:03.994Z,6.85
2019-05-13T19:16:07.190Z,6.85
2019-05-13T19:21:10.267Z,6.81
2019-05-13T19:26:16.448Z,6.74
2019-05-13T19:31:21.945Z,6.77
2019-05-13T19:36:26.188Z,6.86
2019-05-13T19:41:31.387Z,6.83
2019-05-13T19:46:34.347Z,6.75
2019-05-13T19:51:37.331Z,6.73
2019-05-13T19:56:40.642Z,6.90
2019-05-13T20:01:46.187Z,6.80
2019-05-13T20:06:49.223Z,6.79
2019-05-13T20:11:55.277Z,6.68
2019-05-13T20:16:58.694Z,6.60
2019-05-13T20:22:02.394Z,6.60
2019-05-13T20:27:05.545Z,6.50
2019-05-13T20:32:08.608Z,6.57
2019-05-13T20:37:12.378Z,6.39
2019-05-13T20:42:15.553Z,6.30
2019-05-13T20:47:18.571Z,6.41
2019-05-13T20:52:22.148Z,6.42
2019-05-13T20:57:26.104Z,6.27
2019-05-13T21:02:31.875Z,6.13
2019-05-13T21:07:34.583Z,5.99
2019-05-13T21:12:37.624Z,5.98
2019-05-13T21:17:40.625Z,6.03
2019-05-13T21:22:43.614Z,6.12
2019-05-13T21:27:48.653Z,5.85
2019-05-13T21:32:51.832Z,5.74
2019-05-13T21:37:54.954Z,5.69
2019-05-13T21:42:57.933Z,5.62
2019-05-13T21:48:01.711Z,5.73
2019-05-13T21:53:04.852Z,5.79
2019-05-13T21:58:08.175Z,5.74
2019-05-13T22:03:11.660Z,5.75
2019-05-13T22:08:17.043Z,5.73
2019-05-13T22:13:20.069Z,5.72
2019-05-13T22:18:23.305Z,5.70
2019-05-13T22:23:26.302Z,5.58
2019-05-13T22:28:31.281Z,5.46
2019-05-13T22:33:34.165Z,5.45
2019-05-13T22:38:37.185Z,5.40
2019-05-13T22:43:52.399Z,5.37
2019-05-13T22:48:45.102Z,5.49
2019-05-13T22:53:48.095Z,5.44
2019-05-13T22:58:51.683Z,5.43
2019-05-13T23:03:54.788Z,5.28
2019-05-13T23:08:57.798Z,5.29
2019-05-13T23:14:09.481Z,5.29
2019-05-13T23:19:05.990Z,5.20
2019-05-13T23:24:11.178Z,5.23
2019-05-13T23:29:13.883Z,5.03
2019-05-13T23:34:16.911Z,5.11
2019-05-13T23:39:21.643Z,5.00
2019-05-13T23:44:28.307Z,4.96
2019-05-13T23:49:31.636Z,4.96
2019-05-13T23:54:34.651Z,4.89
2019-05-13T23:59:37.608Z,4.87
